NORTHEAST SUFFOLK  -  Special Weather Statement Special Weather Statement        NORTHERN NASSAU  -  Special Weather Statement Special Weather Statement        NORTHWEST SUFFOLK  -  Special Weather Statement Special Weather Statement        SOUTHEAST SUFFOLK  -  Special Weather Statement Special Weather Statement        SOUTHERN NASSAU  -  Special Weather Statement Special Weather Statement        SOUTHWEST SUFFOLK  -  Special Weather Statement Special Weather Statement      

Active alerts

Northern Nassau
  Details for Northern Nassau Special Weather Statement
Southern Nassau
  Details for Southern Nassau Special Weather Statement
Northwest Suffolk
  Details for Northwest Suffolk Special Weather Statement
Southwest Suffolk
  Details for Southwest Suffolk Special Weather Statement
Northeast Suffolk
  Details for Northeast Suffolk Special Weather Statement
Southeast Suffolk
  Details for Southeast Suffolk Special Weather Statement


WXM80 ListenWXM80 Stop

You find our weather info also at:

UK Metoffice

WeatherCloud

Weather Underground

Northeastern Weather Network

AWEKAS

Citizen Weather Observer Program (CWOP)

HAMweather, WeatherForYou, PWS Weather


Weather Underground History page Text

Daily Summary for May 12, 2017 Units:  Both    English   Metric
« Previous Day
Next Day »
Daily Weekly Monthly Yearly Custom
  High: Low: Average:
Temperature: 65.0 °F /  18.3 °C 45.4 °F /  7.4 °C 54.8 °F /  12.7 °C
Dew Point: 49.8 °F /  9.9 °C 41.2 °F /  5.1 °C 46.4 °F /  8 °C
Humidity: 95 % 53 % 75 %
Wind Speed: 6.2 mph /  10 km/h - 1.6 mph /  2.6 km/h
Wind Gust: 10.4 mph /  16.7 km/h - -
Wind:- - ESE
Pressure: 30.05 in /  1017.5 hPa 29.98 in /  1015.1 hPa -
Precipitation: 0.00 in /  0 mm    
Historical Graphs
 
 
Tabular Data for May 12, 2017
Time Temperature Dew Point Pressure Wind Wind Speed Wind Gust Humidity Rainfall Rate (Hourly)
00:00 47.7 °F /  8.7 °C 41.5 °F /  5.3 °C 30.01 in /  1016.1 hPa Calm     79 % 0.00 in /  0 mm
00:01 47.6 °F /  8.7 °C 41.4 °F /  5.2 °C 30.01 in /  1016.1 hPa Calm     79 % 0.00 in /  0 mm
00:06 47.5 °F /  8.6 °C 41.3 °F /  5.2 °C 30.01 in /  1016.1 hPa Calm   1.2 mph /  1.9 km/h 79 % 0.00 in /  0 mm
00:11 47.4 °F /  8.6 °C 41.2 °F /  5.1 °C 30.01 in /  1016.1 hPa Calm     79 % 0.00 in /  0 mm
00:16 47.3 °F /  8.5 °C 41.4 °F /  5.2 °C 30.01 in /  1016.1 hPa Calm     80 % 0.00 in /  0 mm
00:21 47.2 °F /  8.4 °C 41.3 °F /  5.2 °C 30.01 in /  1016.1 hPa Calm     80 % 0.00 in /  0 mm
00:26 47.1 °F /  8.4 °C 41.6 °F /  5.3 °C 30.01 in /  1016.1 hPa Calm     81 % 0.00 in /  0 mm
00:31 47.0 °F /  8.3 °C 41.5 °F /  5.3 °C 30.01 in /  1016.1 hPa Calm     81 % 0.00 in /  0 mm
00:32 47.0 °F /  8.3 °C 41.5 °F /  5.3 °C 30.01 in /  1016.1 hPa Calm     81 % 0.00 in /  0 mm
00:37 46.9 °F /  8.3 °C 41.4 °F /  5.2 °C 30.01 in /  1016.1 hPa Calm     81 % 0.00 in /  0 mm
00:42 46.8 °F /  8.2 °C 41.6 °F /  5.3 °C 30.01 in /  1016.1 hPa Calm   1.0 mph /  1.6 km/h 82 % 0.00 in /  0 mm
00:47 46.7 °F /  8.2 °C 41.8 °F /  5.4 °C 30.02 in /  1016.5 hPa Calm     83 % 0.00 in /  0 mm
00:52 46.6 °F /  8.1 °C 41.7 °F /  5.4 °C 30.01 in /  1016.1 hPa SE 0.1 mph /  0.2 km/h 2.3 mph /  3.7 km/h 83 % 0.00 in /  0 mm
00:57 46.5 °F /  8.1 °C 41.6 °F /  5.3 °C 30.02 in /  1016.5 hPa SW 1.5 mph /  2.4 km/h 2.3 mph /  3.7 km/h 83 % 0.00 in /  0 mm
01:02 46.5 °F /  8.1 °C 41.6 °F /  5.3 °C 30.02 in /  1016.5 hPa SW 0.3 mph /  0.5 km/h 1.2 mph /  1.9 km/h 83 % 0.00 in /  0 mm
01:07 46.4 °F /  8 °C 41.8 °F /  5.4 °C 30.01 in /  1016.1 hPa Calm     84 % 0.00 in /  0 mm
01:12 46.4 °F /  8 °C 41.8 °F /  5.4 °C 30.01 in /  1016.1 hPa Calm     84 % 0.00 in /  0 mm
01:17 46.3 °F /  7.9 °C 41.7 °F /  5.4 °C 30.01 in /  1016.1 hPa Calm     84 % 0.00 in /  0 mm
01:22 46.2 °F /  7.9 °C 41.9 °F /  5.5 °C 30.01 in /  1016.1 hPa Calm     85 % 0.00 in /  0 mm
01:27 46.2 °F /  7.9 °C 41.9 °F /  5.5 °C 30.01 in /  1016.1 hPa Calm     85 % 0.00 in /  0 mm
01:32 46.1 °F /  7.8 °C 41.8 °F /  5.4 °C 30.01 in /  1016.1 hPa Calm   2.3 mph /  3.7 km/h 85 % 0.00 in /  0 mm
01:37 46.0 °F /  7.8 °C 41.7 °F /  5.4 °C 30.01 in /  1016.1 hPa Calm     85 % 0.00 in /  0 mm
01:42 46.0 °F /  7.8 °C 41.7 °F /  5.4 °C 30.01 in /  1016.1 hPa Calm   1.2 mph /  1.9 km/h 85 % 0.00 in /  0 mm
01:43 46.0 °F /  7.8 °C 41.7 °F /  5.4 °C 30.01 in /  1016.1 hPa Calm   1.2 mph /  1.9 km/h 85 % 0.00 in /  0 mm
01:48 45.9 °F /  7.7 °C 41.6 °F /  5.3 °C 30.01 in /  1016.1 hPa SW 0.1 mph /  0.2 km/h 1.2 mph /  1.9 km/h 85 % 0.00 in /  0 mm
01:53 45.9 °F /  7.7 °C 41.9 °F /  5.5 °C 30.02 in /  1016.5 hPa Calm     86 % 0.00 in /  0 mm
01:58 45.8 °F /  7.7 °C 41.9 °F /  5.5 °C 30.02 in /  1016.5 hPa Calm     86 % 0.00 in /  0 mm
02:03 45.8 °F /  7.7 °C 41.9 °F /  5.5 °C 30.02 in /  1016.5 hPa Calm     86 % 0.00 in /  0 mm
02:08 45.8 °F /  7.7 °C 42.2 °F /  5.7 °C 30.02 in /  1016.5 hPa Calm     87 % 0.00 in /  0 mm
02:13 45.8 °F /  7.7 °C 42.2 °F /  5.7 °C 30.01 in /  1016.1 hPa Calm     87 % 0.00 in /  0 mm
02:18 45.8 °F /  7.7 °C 42.2 °F /  5.7 °C 30.01 in /  1016.1 hPa Calm     87 % 0.00 in /  0 mm
02:23 45.8 °F /  7.7 °C 42.2 °F /  5.7 °C 30.01 in /  1016.1 hPa Calm     87 % 0.00 in /  0 mm
02:28 45.8 °F /  7.7 °C 41.9 °F /  5.5 °C 30.01 in /  1016.1 hPa Calm     86 % 0.00 in /  0 mm
02:33 45.8 °F /  7.7 °C 41.9 °F /  5.5 °C 30.01 in /  1016.1 hPa Calm     86 % 0.00 in /  0 mm
02:38 45.7 °F /  7.6 °C 41.8 °F /  5.4 °C 30.02 in /  1016.5 hPa Calm     86 % 0.00 in /  0 mm
02:43 45.7 °F /  7.6 °C 41.8 °F /  5.4 °C 30.02 in /  1016.5 hPa Calm     86 % 0.00 in /  0 mm
02:48 45.6 °F /  7.6 °C 42.0 °F /  5.6 °C 30.02 in /  1016.5 hPa Calm     87 % 0.00 in /  0 mm
02:53 45.6 °F /  7.6 °C 42.0 °F /  5.6 °C 30.02 in /  1016.5 hPa Calm     87 % 0.00 in /  0 mm
02:58 45.5 °F /  7.5 °C 41.9 °F /  5.5 °C 30.02 in /  1016.5 hPa Calm     87 % 0.00 in /  0 mm
03:03 45.5 °F /  7.5 °C 41.9 °F /  5.5 °C 30.02 in /  1016.5 hPa Calm     87 % 0.00 in /  0 mm
03:08 45.5 °F /  7.5 °C 42.2 °F /  5.7 °C 30.02 in /  1016.5 hPa Calm     88 % 0.00 in /  0 mm
03:13 45.4 °F /  7.4 °C 42.1 °F /  5.6 °C 30.01 in /  1016.1 hPa Calm     88 % 0.00 in /  0 mm
03:18 45.5 °F /  7.5 °C 42.4 °F /  5.8 °C 30.02 in /  1016.5 hPa Calm     89 % 0.00 in /  0 mm
03:23 45.5 °F /  7.5 °C 42.4 °F /  5.8 °C 30.02 in /  1016.5 hPa Calm     89 % 0.00 in /  0 mm
03:28 45.5 °F /  7.5 °C 42.7 °F /  5.9 °C 30.02 in /  1016.5 hPa Calm     90 % 0.00 in /  0 mm
03:33 45.6 °F /  7.6 °C 42.8 °F /  6 °C 30.02 in /  1016.5 hPa Calm     90 % 0.00 in /  0 mm
03:38 45.6 °F /  7.6 °C 42.8 °F /  6 °C 30.02 in /  1016.5 hPa Calm     90 % 0.00 in /  0 mm
03:43 45.6 °F /  7.6 °C 42.8 °F /  6 °C 30.02 in /  1016.5 hPa Calm     90 % 0.00 in /  0 mm
03:48 45.7 °F /  7.6 °C 42.9 °F /  6.1 °C 30.01 in /  1016.1 hPa Calm     90 % 0.00 in /  0 mm
03:53 45.8 °F /  7.7 °C 43.0 °F /  6.1 °C 30.02 in /  1016.5 hPa Calm     90 % 0.00 in /  0 mm
03:58 45.8 °F /  7.7 °C 43.3 °F /  6.3 °C 30.01 in /  1016.1 hPa Calm     91 % 0.00 in /  0 mm
04:04 45.9 °F /  7.7 °C 43.4 °F /  6.3 °C 30.01 in /  1016.1 hPa Calm     91 % 0.00 in /  0 mm
04:09 46.0 °F /  7.8 °C 43.5 °F /  6.4 °C 30.01 in /  1016.1 hPa Calm     91 % 0.00 in /  0 mm
04:14 46.1 °F /  7.8 °C 43.6 °F /  6.4 °C 30.01 in /  1016.1 hPa Calm     91 % 0.00 in /  0 mm
04:19 46.2 °F /  7.9 °C 44.0 °F /  6.7 °C 30.01 in /  1016.1 hPa Calm     92 % 0.00 in /  0 mm
04:24 46.4 °F /  8 °C 44.2 °F /  6.8 °C 30.01 in /  1016.1 hPa Calm     92 % 0.00 in /  0 mm
04:29 46.5 °F /  8.1 °C 44.3 °F /  6.8 °C 30.01 in /  1016.1 hPa Calm     92 % 0.00 in /  0 mm
04:34 46.6 °F /  8.1 °C 44.4 °F /  6.9 °C 30.01 in /  1016.1 hPa Calm     92 % 0.00 in /  0 mm
04:39 46.7 °F /  8.2 °C 44.5 °F /  6.9 °C 30.01 in /  1016.1 hPa Calm     92 % 0.00 in /  0 mm
04:44 46.8 °F /  8.2 °C 44.6 °F /  7 °C 30.01 in /  1016.1 hPa Calm     92 % 0.00 in /  0 mm
04:49 47.0 °F /  8.3 °C 44.8 °F /  7.1 °C 30.01 in /  1016.1 hPa Calm     92 % 0.00 in /  0 mm
04:54 47.1 °F /  8.4 °C 44.9 °F /  7.2 °C 30.01 in /  1016.1 hPa Calm     92 % 0.00 in /  0 mm
04:59 47.2 °F /  8.4 °C 45.0 °F /  7.2 °C 30.01 in /  1016.1 hPa Calm     92 % 0.00 in /  0 mm
05:04 47.2 °F /  8.4 °C 45.0 °F /  7.2 °C 30.00 in /  1015.8 hPa Calm     92 % 0.00 in /  0 mm
05:09 47.3 °F /  8.5 °C 45.1 °F /  7.3 °C 30.01 in /  1016.1 hPa Calm     92 % 0.00 in /  0 mm
05:14 47.3 °F /  8.5 °C 45.1 °F /  7.3 °C 30.01 in /  1016.1 hPa Calm     92 % 0.00 in /  0 mm
05:19 47.3 °F /  8.5 °C 45.1 °F /  7.3 °C 30.02 in /  1016.5 hPa Calm     92 % 0.00 in /  0 mm
05:24 47.3 °F /  8.5 °C 44.8 °F /  7.1 °C 30.02 in /  1016.5 hPa Calm     91 % 0.00 in /  0 mm
05:29 47.3 °F /  8.5 °C 44.8 °F /  7.1 °C 30.01 in /  1016.1 hPa Calm     91 % 0.00 in /  0 mm
05:33 47.3 °F /  8.5 °C 44.8 °F /  7.1 °C 30.02 in /  1016.5 hPa Calm     91 % 0.00 in /  0 mm
05:38 47.3 °F /  8.5 °C 45.1 °F /  7.3 °C 30.02 in /  1016.5 hPa NW 0.1 mph /  0.2 km/h 2.3 mph /  3.7 km/h 92 % 0.00 in /  0 mm
05:43 47.4 °F /  8.6 °C 45.2 °F /  7.3 °C 30.02 in /  1016.5 hPa Calm     92 % 0.00 in /  0 mm
05:48 47.5 °F /  8.6 °C 45.3 °F /  7.4 °C 30.02 in /  1016.5 hPa Calm     92 % 0.00 in /  0 mm
05:53 47.5 °F /  8.6 °C 45.3 °F /  7.4 °C 30.02 in /  1016.5 hPa Calm     92 % 0.00 in /  0 mm
05:58 47.5 °F /  8.6 °C 45.3 °F /  7.4 °C 30.02 in /  1016.5 hPa NW 0.2 mph /  0.3 km/h 1.2 mph /  1.9 km/h 92 % 0.00 in /  0 mm
06:03 47.5 °F /  8.6 °C 45.3 °F /  7.4 °C 30.02 in /  1016.5 hPa Calm   1.2 mph /  1.9 km/h 92 % 0.00 in /  0 mm
06:08 47.6 °F /  8.7 °C 45.4 °F /  7.4 °C 30.02 in /  1016.5 hPa Calm   1.2 mph /  1.9 km/h 92 % 0.00 in /  0 mm
06:13 47.6 °F /  8.7 °C 45.4 °F /  7.4 °C 30.03 in /  1016.8 hPa NW 0.1 mph /  0.2 km/h   92 % 0.00 in /  0 mm
06:18 47.7 °F /  8.7 °C 45.5 °F /  7.5 °C 30.03 in /  1016.8 hPa NNE 1.0 mph /  1.6 km/h 3.5 mph /  5.6 km/h 92 % 0.00 in /  0 mm
06:24 47.9 °F /  8.8 °C 46.0 °F /  7.8 °C 30.03 in /  1016.8 hPa NNE 2.1 mph /  3.4 km/h 3.5 mph /  5.6 km/h 93 % 0.00 in /  0 mm
06:29 48.0 °F /  8.9 °C 46.1 °F /  7.8 °C 30.03 in /  1016.8 hPa NNE 1.6 mph /  2.6 km/h 3.5 mph /  5.6 km/h 93 % 0.00 in /  0 mm
06:34 48.2 °F /  9 °C 46.3 °F /  7.9 °C 30.04 in /  1017.2 hPa NNE 0.9 mph /  1.4 km/h 3.5 mph /  5.6 km/h 93 % 0.00 in /  0 mm
06:39 48.4 °F /  9.1 °C 46.8 °F /  8.2 °C 30.04 in /  1017.2 hPa NNE 1.4 mph /  2.3 km/h 5.8 mph /  9.3 km/h 94 % 0.00 in /  0 mm
06:44 48.6 °F /  9.2 °C 47.0 °F /  8.3 °C 30.04 in /  1017.2 hPa NNE 1.6 mph /  2.6 km/h 3.5 mph /  5.6 km/h 94 % 0.00 in /  0 mm
06:49 48.7 °F /  9.3 °C 47.1 °F /  8.4 °C 30.04 in /  1017.2 hPa NNE 2.7 mph /  4.3 km/h 4.6 mph /  7.4 km/h 94 % 0.00 in /  0 mm
06:54 49.0 °F /  9.4 °C 47.3 °F /  8.5 °C 30.04 in /  1017.2 hPa NNE 0.9 mph /  1.4 km/h 4.0 mph /  6.4 km/h 94 % 0.00 in /  0 mm
06:59 49.2 °F /  9.6 °C 47.5 °F /  8.6 °C 30.04 in /  1017.2 hPa NNE 0.3 mph /  0.5 km/h 2.3 mph /  3.7 km/h 94 % 0.00 in /  0 mm
07:04 49.4 °F /  9.7 °C 47.7 °F /  8.7 °C 30.04 in /  1017.2 hPa NNE 0.1 mph /  0.2 km/h 1.2 mph /  1.9 km/h 94 % 0.00 in /  0 mm
07:09 49.8 °F /  9.9 °C 48.1 °F /  8.9 °C 30.05 in /  1017.5 hPa ENE 0.5 mph /  0.8 km/h 3.5 mph /  5.6 km/h 94 % 0.00 in /  0 mm
07:14 50.3 °F /  10.2 °C 48.9 °F /  9.4 °C 30.04 in /  1017.2 hPa NE 0.4 mph /  0.6 km/h 1.2 mph /  1.9 km/h 95 % 0.00 in /  0 mm
07:19 50.8 °F /  10.4 °C 49.4 °F /  9.7 °C 30.05 in /  1017.5 hPa North 1.4 mph /  2.3 km/h 3.5 mph /  5.6 km/h 95 % 0.00 in /  0 mm
07:24 51.1 °F /  10.6 °C 49.4 °F /  9.7 °C 30.05 in /  1017.5 hPa NE 1.5 mph /  2.4 km/h 3.5 mph /  5.6 km/h 94 % 0.00 in /  0 mm
07:29 51.5 °F /  10.8 °C 49.8 °F /  9.9 °C 30.04 in /  1017.2 hPa NNE 1.7 mph /  2.7 km/h 2.3 mph /  3.7 km/h 94 % 0.00 in /  0 mm
07:34 51.8 °F /  11 °C 49.8 °F /  9.9 °C 30.04 in /  1017.2 hPa ENE 5.0 mph /  8 km/h 7.0 mph /  11.3 km/h 93 % 0.00 in /  0 mm
07:39 52.2 °F /  11.2 °C 49.4 °F /  9.7 °C 30.04 in /  1017.2 hPa NE 3.4 mph /  5.5 km/h 5.0 mph /  8 km/h 90 % 0.00 in /  0 mm
07:44 52.8 °F /  11.6 °C 49.0 °F /  9.4 °C 30.04 in /  1017.2 hPa ENE 5.1 mph /  8.2 km/h 7.0 mph /  11.3 km/h 87 % 0.00 in /  0 mm
07:49 53.2 °F /  11.8 °C 48.8 °F /  9.3 °C 30.04 in /  1017.2 hPa ENE 2.5 mph /  4 km/h 4.6 mph /  7.4 km/h 85 % 0.00 in /  0 mm
07:54 53.5 °F /  11.9 °C 48.5 °F /  9.2 °C 30.04 in /  1017.2 hPa ENE 3.3 mph /  5.3 km/h 8.1 mph /  13 km/h 83 % 0.00 in /  0 mm
07:59 53.5 °F /  11.9 °C 48.1 °F /  8.9 °C 30.04 in /  1017.2 hPa ENE 4.4 mph /  7.1 km/h 8.1 mph /  13 km/h 82 % 0.00 in /  0 mm
08:04 53.3 °F /  11.8 °C 48.3 °F /  9.1 °C 30.04 in /  1017.2 hPa ENE 3.0 mph /  4.8 km/h 4.6 mph /  7.4 km/h 83 % 0.00 in /  0 mm
08:09 53.3 °F /  11.8 °C 48.3 °F /  9.1 °C 30.04 in /  1017.2 hPa ENE 4.6 mph /  7.4 km/h 4.6 mph /  7.4 km/h 83 % 0.00 in /  0 mm
08:14 53.3 °F /  11.8 °C 48.3 °F /  9.1 °C 30.04 in /  1017.2 hPa ENE 3.1 mph /  5 km/h 9.2 mph /  14.8 km/h 83 % 0.00 in /  0 mm
08:20 53.5 °F /  11.9 °C 47.8 °F /  8.8 °C 30.04 in /  1017.2 hPa NE 3.7 mph /  6 km/h 7.0 mph /  11.3 km/h 81 % 0.00 in /  0 mm
08:25 53.6 °F /  12 °C 47.6 °F /  8.7 °C 30.05 in /  1017.5 hPa ENE 2.4 mph /  3.9 km/h 3.5 mph /  5.6 km/h 80 % 0.00 in /  0 mm
08:30 53.8 °F /  12.1 °C 47.8 °F /  8.8 °C 30.05 in /  1017.5 hPa NE 3.3 mph /  5.3 km/h 6.9 mph /  11.1 km/h 80 % 0.00 in /  0 mm
08:35 53.8 °F /  12.1 °C 47.4 °F /  8.6 °C 30.05 in /  1017.5 hPa ENE 3.7 mph /  6 km/h 5.0 mph /  8 km/h 79 % 0.00 in /  0 mm
08:40 53.7 °F /  12.1 °C 47.0 °F /  8.3 °C 30.05 in /  1017.5 hPa ENE 3.9 mph /  6.3 km/h 8.1 mph /  13 km/h 78 % 0.00 in /  0 mm
08:45 53.8 °F /  12.1 °C 47.4 °F /  8.6 °C 30.05 in /  1017.5 hPa ENE 2.5 mph /  4 km/h 9.2 mph /  14.8 km/h 79 % 0.00 in /  0 mm
08:50 54.1 °F /  12.3 °C 48.1 °F /  8.9 °C 30.04 in /  1017.2 hPa ENE 6.2 mph /  10 km/h 9.2 mph /  14.8 km/h 80 % 0.00 in /  0 mm
08:55 54.2 °F /  12.3 °C 47.8 °F /  8.8 °C 30.05 in /  1017.5 hPa ENE 1.6 mph /  2.6 km/h 6.9 mph /  11.1 km/h 79 % 0.00 in /  0 mm
09:00 54.6 °F /  12.6 °C 48.6 °F /  9.2 °C 30.05 in /  1017.5 hPa ENE 3.8 mph /  6.1 km/h 4.6 mph /  7.4 km/h 80 % 0.00 in /  0 mm
09:05 55.0 °F /  12.8 °C 48.3 °F /  9.1 °C 30.05 in /  1017.5 hPa ENE 1.1 mph /  1.8 km/h 8.1 mph /  13 km/h 78 % 0.00 in /  0 mm
09:10 55.3 °F /  12.9 °C 48.2 °F /  9 °C 30.05 in /  1017.5 hPa East 4.5 mph /  7.2 km/h 8.1 mph /  13 km/h 77 % 0.00 in /  0 mm
09:15 55.5 °F /  13.1 °C 49.1 °F /  9.5 °C 30.04 in /  1017.2 hPa ENE 2.2 mph /  3.5 km/h 3.5 mph /  5.6 km/h 79 % 0.00 in /  0 mm
09:20 55.7 °F /  13.2 °C 48.2 °F /  9 °C 30.04 in /  1017.2 hPa NE 3.0 mph /  4.8 km/h 8.1 mph /  13 km/h 76 % 0.00 in /  0 mm
09:25 55.9 °F /  13.3 °C 48.4 °F /  9.1 °C 30.04 in /  1017.2 hPa ENE 2.1 mph /  3.4 km/h 6.9 mph /  11.1 km/h 76 % 0.00 in /  0 mm
09:30 56.4 °F /  13.6 °C 48.9 °F /  9.4 °C 30.05 in /  1017.5 hPa NNE 2.4 mph /  3.9 km/h 7.0 mph /  11.3 km/h 76 % 0.00 in /  0 mm
09:35 56.7 °F /  13.7 °C 48.9 °F /  9.4 °C 30.05 in /  1017.5 hPa ENE 2.2 mph /  3.5 km/h 5.0 mph /  8 km/h 75 % 0.00 in /  0 mm
09:40 57.2 °F /  14 °C 48.6 °F /  9.2 °C 30.05 in /  1017.5 hPa ENE 2.1 mph /  3.4 km/h 4.6 mph /  7.4 km/h 73 % 0.00 in /  0 mm
09:45 57.7 °F /  14.3 °C 48.7 °F /  9.3 °C 30.05 in /  1017.5 hPa ENE 1.0 mph /  1.6 km/h 3.5 mph /  5.6 km/h 72 % 0.00 in /  0 mm
09:50 58.0 °F /  14.4 °C 48.3 °F /  9.1 °C 30.05 in /  1017.5 hPa ENE 1.0 mph /  1.6 km/h 5.0 mph /  8 km/h 70 % 0.00 in /  0 mm
09:55 58.5 °F /  14.7 °C 49.8 °F /  9.9 °C 30.05 in /  1017.5 hPa ENE 1.0 mph /  1.6 km/h 7.0 mph /  11.3 km/h 73 % 0.00 in /  0 mm
10:01 59.0 °F /  15 °C 48.8 °F /  9.3 °C 30.05 in /  1017.5 hPa NE 3.3 mph /  5.3 km/h 4.6 mph /  7.4 km/h 69 % 0.00 in /  0 mm
10:06 59.2 °F /  15.1 °C 48.2 °F /  9 °C 30.05 in /  1017.5 hPa ENE 1.8 mph /  2.9 km/h 3.5 mph /  5.6 km/h 67 % 0.00 in /  0 mm
10:11 59.1 °F /  15.1 °C 48.5 °F /  9.2 °C 30.05 in /  1017.5 hPa East 3.7 mph /  6 km/h 6.0 mph /  9.7 km/h 68 % 0.00 in /  0 mm
10:16 59.2 °F /  15.1 °C 48.2 °F /  9 °C 30.05 in /  1017.5 hPa ENE 2.4 mph /  3.9 km/h 3.5 mph /  5.6 km/h 67 % 0.00 in /  0 mm
10:21 59.5 °F /  15.3 °C 47.7 °F /  8.7 °C 30.05 in /  1017.5 hPa NE 3.1 mph /  5 km/h 3.5 mph /  5.6 km/h 65 % 0.00 in /  0 mm
10:26 59.4 °F /  15.2 °C 47.6 °F /  8.7 °C 30.04 in /  1017.2 hPa ENE 3.3 mph /  5.3 km/h 5.8 mph /  9.3 km/h 65 % 0.00 in /  0 mm
10:31 59.4 °F /  15.2 °C 49.2 °F /  9.6 °C 30.04 in /  1017.2 hPa ENE 1.4 mph /  2.3 km/h 3.5 mph /  5.6 km/h 69 % 0.00 in /  0 mm
10:36 60.0 °F /  15.6 °C 48.2 °F /  9 °C 30.04 in /  1017.2 hPa ENE 5.0 mph /  8 km/h 8.1 mph /  13 km/h 65 % 0.00 in /  0 mm
10:41 60.0 °F /  15.6 °C 48.6 °F /  9.2 °C 30.04 in /  1017.2 hPa ENE 2.4 mph /  3.9 km/h 3.5 mph /  5.6 km/h 66 % 0.00 in /  0 mm
10:46 60.3 °F /  15.7 °C 49.3 °F /  9.6 °C 30.04 in /  1017.2 hPa East 3.8 mph /  6.1 km/h 5.8 mph /  9.3 km/h 67 % 0.00 in /  0 mm
10:51 60.6 °F /  15.9 °C 49.6 °F /  9.8 °C 30.04 in /  1017.2 hPa ENE 1.8 mph /  2.9 km/h 4.0 mph /  6.4 km/h 67 % 0.00 in /  0 mm
10:56 61.2 °F /  16.2 °C 49.3 °F /  9.6 °C 30.04 in /  1017.2 hPa ENE 3.8 mph /  6.1 km/h 7.0 mph /  11.3 km/h 65 % 0.00 in /  0 mm
11:01 61.5 °F /  16.4 °C 48.4 °F /  9.1 °C 30.03 in /  1016.8 hPa ENE 2.3 mph /  3.7 km/h 4.6 mph /  7.4 km/h 62 % 0.00 in /  0 mm
11:06 61.8 °F /  16.6 °C 47.8 °F /  8.8 °C 30.03 in /  1016.8 hPa ENE 2.8 mph /  4.5 km/h 4.6 mph /  7.4 km/h 60 % 0.00 in /  0 mm
11:11 62.2 °F /  16.8 °C 48.6 °F /  9.2 °C 30.03 in /  1016.8 hPa East 2.7 mph /  4.3 km/h 4.6 mph /  7.4 km/h 61 % 0.00 in /  0 mm
11:16 62.5 °F /  16.9 °C 48.9 °F /  9.4 °C 30.03 in /  1016.8 hPa East 2.5 mph /  4 km/h 5.0 mph /  8 km/h 61 % 0.00 in /  0 mm
11:21 62.5 °F /  16.9 °C 48.0 °F /  8.9 °C 30.04 in /  1017.2 hPa East 3.2 mph /  5.1 km/h 5.0 mph /  8 km/h 59 % 0.00 in /  0 mm
11:26 62.4 °F /  16.9 °C 48.3 °F /  9.1 °C 30.04 in /  1017.2 hPa East 3.9 mph /  6.3 km/h 5.8 mph /  9.3 km/h 60 % 0.00 in /  0 mm
11:31 62.6 °F /  17 °C 48.1 °F /  8.9 °C 30.03 in /  1016.8 hPa East 3.6 mph /  5.8 km/h 3.6 mph /  5.8 km/h 59 % 0.00 in /  0 mm
11:36 62.5 °F /  16.9 °C 47.5 °F /  8.6 °C 30.04 in /  1017.2 hPa ENE 3.2 mph /  5.1 km/h 7.0 mph /  11.3 km/h 58 % 0.00 in /  0 mm
11:42 62.8 °F /  17.1 °C 48.7 °F /  9.3 °C 30.03 in /  1016.8 hPa East 3.6 mph /  5.8 km/h 4.6 mph /  7.4 km/h 60 % 0.00 in /  0 mm
11:47 63.0 °F /  17.2 °C 47.1 °F /  8.4 °C 30.03 in /  1016.8 hPa East 3.7 mph /  6 km/h 6.0 mph /  9.7 km/h 56 % 0.00 in /  0 mm
11:51 63.4 °F /  17.4 °C 47.4 °F /  8.6 °C 30.03 in /  1016.8 hPa East 3.6 mph /  5.8 km/h 4.6 mph /  7.4 km/h 56 % 0.00 in /  0 mm
11:57 63.6 °F /  17.6 °C 47.6 °F /  8.7 °C 30.03 in /  1016.8 hPa ESE 3.7 mph /  6 km/h 5.8 mph /  9.3 km/h 56 % 0.00 in /  0 mm
12:02 63.2 °F /  17.3 °C 48.2 °F /  9 °C 30.03 in /  1016.8 hPa East 3.1 mph /  5 km/h 4.6 mph /  7.4 km/h 58 % 0.00 in /  0 mm
12:07 63.6 °F /  17.6 °C 48.1 °F /  8.9 °C 30.03 in /  1016.8 hPa East 3.5 mph /  5.6 km/h 5.8 mph /  9.3 km/h 57 % 0.00 in /  0 mm
12:12 63.5 °F /  17.5 °C 48.0 °F /  8.9 °C 30.03 in /  1016.8 hPa East 3.5 mph /  5.6 km/h 6.9 mph /  11.1 km/h 57 % 0.00 in /  0 mm
12:17 63.5 °F /  17.5 °C 47.5 °F /  8.6 °C 30.03 in /  1016.8 hPa ENE 4.1 mph /  6.6 km/h 6.0 mph /  9.7 km/h 56 % 0.00 in /  0 mm
12:22 63.6 °F /  17.6 °C 47.6 °F /  8.7 °C 30.02 in /  1016.5 hPa East 2.7 mph /  4.3 km/h 4.6 mph /  7.4 km/h 56 % 0.00 in /  0 mm
12:27 63.8 °F /  17.7 °C 48.3 °F /  9.1 °C 30.02 in /  1016.5 hPa East 4.9 mph /  7.9 km/h 6.9 mph /  11.1 km/h 57 % 0.00 in /  0 mm
12:32 63.9 °F /  17.7 °C 47.9 °F /  8.8 °C 30.02 in /  1016.5 hPa ESE 3.9 mph /  6.3 km/h 4.6 mph /  7.4 km/h 56 % 0.00 in /  0 mm
12:34 64.0 °F /  17.8 °C 49.8 °F /  9.9 °C 30.02 in /  1016.5 hPa East 3.1 mph /  5 km/h 5.0 mph /  8 km/h 60 % 0.00 in /  0 mm
12:39 64.3 °F /  17.9 °C 48.7 °F /  9.3 °C 30.02 in /  1016.5 hPa ESE 4.2 mph /  6.8 km/h 5.0 mph /  8 km/h 57 % 0.00 in /  0 mm
12:44 64.2 °F /  17.9 °C 48.2 °F /  9 °C 30.02 in /  1016.5 hPa East 3.9 mph /  6.3 km/h 5.8 mph /  9.3 km/h 56 % 0.00 in /  0 mm
12:49 64.0 °F /  17.8 °C 47.5 °F /  8.6 °C 30.02 in /  1016.5 hPa ENE 2.2 mph /  3.5 km/h 5.8 mph /  9.3 km/h 55 % 0.00 in /  0 mm
12:54 64.0 °F /  17.8 °C 48.5 °F /  9.2 °C 30.02 in /  1016.5 hPa East 4.0 mph /  6.4 km/h 5.8 mph /  9.3 km/h 57 % 0.00 in /  0 mm
12:59 64.3 °F /  17.9 °C 47.3 °F /  8.5 °C 30.02 in /  1016.5 hPa East 3.3 mph /  5.3 km/h 4.6 mph /  7.4 km/h 54 % 0.00 in /  0 mm
13:04 64.1 °F /  17.8 °C 48.1 °F /  8.9 °C 30.02 in /  1016.5 hPa ESE 2.7 mph /  4.3 km/h 5.8 mph /  9.3 km/h 56 % 0.00 in /  0 mm
13:09 64.3 °F /  17.9 °C 47.3 °F /  8.5 °C 30.01 in /  1016.1 hPa East 3.7 mph /  6 km/h 6.9 mph /  11.1 km/h 54 % 0.00 in /  0 mm
13:14 64.4 °F /  18 °C 47.9 °F /  8.8 °C 30.01 in /  1016.1 hPa East 3.7 mph /  6 km/h 6.0 mph /  9.7 km/h 55 % 0.00 in /  0 mm
13:19 64.4 °F /  18 °C 47.9 °F /  8.8 °C 30.01 in /  1016.1 hPa East 3.1 mph /  5 km/h 4.6 mph /  7.4 km/h 55 % 0.00 in /  0 mm
13:24 64.8 °F /  18.2 °C 48.7 °F /  9.3 °C 30.01 in /  1016.1 hPa ENE 2.9 mph /  4.7 km/h 4.6 mph /  7.4 km/h 56 % 0.00 in /  0 mm
13:29 65.0 °F /  18.3 °C 48.9 °F /  9.4 °C 30.01 in /  1016.1 hPa East 3.7 mph /  6 km/h 6.0 mph /  9.7 km/h 56 % 0.00 in /  0 mm
13:34 64.7 °F /  18.2 °C 48.2 °F /  9 °C 30.01 in /  1016.1 hPa East 4.2 mph /  6.8 km/h 6.0 mph /  9.7 km/h 55 % 0.00 in /  0 mm
13:40 64.7 °F /  18.2 °C 47.7 °F /  8.7 °C 30.01 in /  1016.1 hPa East 4.0 mph /  6.4 km/h 5.0 mph /  8 km/h 54 % 0.00 in /  0 mm
13:45 64.7 °F /  18.2 °C 48.2 °F /  9 °C 30.01 in /  1016.1 hPa East 3.5 mph /  5.6 km/h 5.8 mph /  9.3 km/h 55 % 0.00 in /  0 mm
13:50 64.8 °F /  18.2 °C 48.7 °F /  9.3 °C 30.01 in /  1016.1 hPa ESE 4.1 mph /  6.6 km/h 6.9 mph /  11.1 km/h 56 % 0.00 in /  0 mm
13:55 64.7 °F /  18.2 °C 48.6 °F /  9.2 °C 30.00 in /  1015.8 hPa East 3.9 mph /  6.3 km/h 5.0 mph /  8 km/h 56 % 0.00 in /  0 mm
14:00 64.7 °F /  18.2 °C 48.6 °F /  9.2 °C 30.00 in /  1015.8 hPa East 3.0 mph /  4.8 km/h 6.9 mph /  11.1 km/h 56 % 0.00 in /  0 mm
14:05 64.8 °F /  18.2 °C 48.7 °F /  9.3 °C 30.00 in /  1015.8 hPa East 3.2 mph /  5.1 km/h 5.8 mph /  9.3 km/h 56 % 0.00 in /  0 mm
14:10 64.6 °F /  18.1 °C 49.0 °F /  9.4 °C 30.00 in /  1015.8 hPa East 3.0 mph /  4.8 km/h 4.6 mph /  7.4 km/h 57 % 0.00 in /  0 mm
14:15 64.7 °F /  18.2 °C 47.7 °F /  8.7 °C 30.00 in /  1015.8 hPa East 2.8 mph /  4.5 km/h 4.6 mph /  7.4 km/h 54 % 0.00 in /  0 mm
14:20 64.7 °F /  18.2 °C 47.2 °F /  8.4 °C 30.00 in /  1015.8 hPa ENE 2.1 mph /  3.4 km/h 3.5 mph /  5.6 km/h 53 % 0.00 in /  0 mm
14:25 64.6 °F /  18.1 °C 47.6 °F /  8.7 °C 30.00 in /  1015.8 hPa ENE 2.1 mph /  3.4 km/h 3.5 mph /  5.6 km/h 54 % 0.00 in /  0 mm
14:30 64.7 °F /  18.2 °C 47.7 °F /  8.7 °C 30.00 in /  1015.8 hPa East 2.6 mph /  4.2 km/h 4.6 mph /  7.4 km/h 54 % 0.00 in /  0 mm
14:35 64.7 °F /  18.2 °C 47.2 °F /  8.4 °C 30.00 in /  1015.8 hPa ENE 2.0 mph /  3.2 km/h 3.5 mph /  5.6 km/h 53 % 0.00 in /  0 mm
14:40 64.7 °F /  18.2 °C 47.7 °F /  8.7 °C 29.99 in /  1015.5 hPa ENE 2.1 mph /  3.4 km/h 3.5 mph /  5.6 km/h 54 % 0.00 in /  0 mm
14:45 64.4 °F /  18 °C 47.4 °F /  8.6 °C 29.99 in /  1015.5 hPa NE 2.4 mph /  3.9 km/h 4.6 mph /  7.4 km/h 54 % 0.00 in /  0 mm
14:50 64.0 °F /  17.8 °C 47.0 °F /  8.3 °C 29.99 in /  1015.5 hPa ENE 2.1 mph /  3.4 km/h 3.5 mph /  5.6 km/h 54 % 0.00 in /  0 mm
14:55 63.6 °F /  17.6 °C 46.6 °F /  8.1 °C 29.99 in /  1015.5 hPa ENE 2.1 mph /  3.4 km/h 3.5 mph /  5.6 km/h 54 % 0.00 in /  0 mm
14:56 63.6 °F /  17.6 °C 47.6 °F /  8.7 °C 29.99 in /  1015.5 hPa ENE 2.1 mph /  3.4 km/h 3.5 mph /  5.6 km/h 56 % 0.00 in /  0 mm
15:01 63.8 °F /  17.7 °C 46.8 °F /  8.2 °C 29.99 in /  1015.5 hPa ENE 2.0 mph /  3.2 km/h 3.5 mph /  5.6 km/h 54 % 0.00 in /  0 mm
15:06 63.9 °F /  17.7 °C 46.9 °F /  8.3 °C 29.98 in /  1015.1 hPa ENE 2.1 mph /  3.4 km/h 3.5 mph /  5.6 km/h 54 % 0.00 in /  0 mm
15:11 64.3 °F /  17.9 °C 46.8 °F /  8.2 °C 29.99 in /  1015.5 hPa ENE 1.6 mph /  2.6 km/h 3.5 mph /  5.6 km/h 53 % 0.00 in /  0 mm
15:16 64.5 °F /  18.1 °C 48.0 °F /  8.9 °C 29.99 in /  1015.5 hPa NE 2.6 mph /  4.2 km/h 5.0 mph /  8 km/h 55 % 0.00 in /  0 mm
15:21 64.5 °F /  18.1 °C 47.0 °F /  8.3 °C 29.98 in /  1015.1 hPa ENE 2.0 mph /  3.2 km/h 8.0 mph /  12.9 km/h 53 % 0.00 in /  0 mm
15:26 64.6 °F /  18.1 °C 47.6 °F /  8.7 °C 29.99 in /  1015.5 hPa ENE 2.0 mph /  3.2 km/h 8.0 mph /  12.9 km/h 54 % 0.00 in /  0 mm
15:31 64.5 °F /  18.1 °C 47.5 °F /  8.6 °C 29.99 in /  1015.5 hPa East 5.7 mph /  9.2 km/h 10.4 mph /  16.7 km/h 54 % 0.00 in /  0 mm
15:36 63.9 °F /  17.7 °C 46.9 °F /  8.3 °C 29.99 in /  1015.5 hPa ENE 6.0 mph /  9.7 km/h 9.0 mph /  14.5 km/h 54 % 0.00 in /  0 mm
15:41 63.4 °F /  17.4 °C 48.4 °F /  9.1 °C 29.98 in /  1015.1 hPa ENE 1.7 mph /  2.7 km/h 3.5 mph /  5.6 km/h 58 % 0.00 in /  0 mm
15:46 63.0 °F /  17.2 °C 46.6 °F /  8.1 °C 29.98 in /  1015.1 hPa ENE 1.0 mph /  1.6 km/h 4.0 mph /  6.4 km/h 55 % 0.00 in /  0 mm
15:51 62.4 °F /  16.9 °C 46.5 °F /  8.1 °C 29.98 in /  1015.1 hPa ENE 1.0 mph /  1.6 km/h 5.0 mph /  8 km/h 56 % 0.00 in /  0 mm
15:56 62.0 °F /  16.7 °C 47.5 °F /  8.6 °C 29.98 in /  1015.1 hPa ENE 3.8 mph /  6.1 km/h 4.0 mph /  6.4 km/h 59 % 0.00 in /  0 mm
16:01 62.1 °F /  16.7 °C 48.0 °F /  8.9 °C 29.98 in /  1015.1 hPa ENE 2.0 mph /  3.2 km/h 4.6 mph /  7.4 km/h 60 % 0.00 in /  0 mm
16:06 62.4 °F /  16.9 °C 47.9 °F /  8.8 °C 29.98 in /  1015.1 hPa ENE 1.0 mph /  1.6 km/h 2.3 mph /  3.7 km/h 59 % 0.00 in /  0 mm
16:11 62.7 °F /  17.1 °C 48.6 °F /  9.2 °C 29.98 in /  1015.1 hPa ENE 0.7 mph /  1.1 km/h 2.3 mph /  3.7 km/h 60 % 0.00 in /  0 mm
16:16 62.8 °F /  17.1 °C 49.6 °F /  9.8 °C 29.98 in /  1015.1 hPa NE 1.0 mph /  1.6 km/h 2.3 mph /  3.7 km/h 62 % 0.00 in /  0 mm
16:21 62.9 °F /  17.2 °C 48.8 °F /  9.3 °C 29.98 in /  1015.1 hPa ENE 1.0 mph /  1.6 km/h 5.0 mph /  8 km/h 60 % 0.00 in /  0 mm
16:26 63.0 °F /  17.2 °C 48.4 °F /  9.1 °C 29.99 in /  1015.5 hPa ENE 1.0 mph /  1.6 km/h 7.0 mph /  11.3 km/h 59 % 0.00 in /  0 mm
16:31 63.0 °F /  17.2 °C 48.4 °F /  9.1 °C 29.99 in /  1015.5 hPa Calm   1.0 mph /  1.6 km/h 59 % 0.00 in /  0 mm
16:36 62.6 °F /  17 °C 48.5 °F /  9.2 °C 29.99 in /  1015.5 hPa Calm   1.0 mph /  1.6 km/h 60 % 0.00 in /  0 mm
16:41 62.5 °F /  16.9 °C 48.4 °F /  9.1 °C 29.99 in /  1015.5 hPa Calm   2.0 mph /  3.2 km/h 60 % 0.00 in /  0 mm
16:46 62.4 °F /  16.9 °C 47.4 °F /  8.6 °C 29.99 in /  1015.5 hPa Calm   2.0 mph /  3.2 km/h 58 % 0.00 in /  0 mm
16:51 62.4 °F /  16.9 °C 47.9 °F /  8.8 °C 29.99 in /  1015.5 hPa ENE 1.0 mph /  1.6 km/h 3.0 mph /  4.8 km/h 59 % 0.00 in /  0 mm
16:56 62.4 °F /  16.9 °C 48.3 °F /  9.1 °C 29.99 in /  1015.5 hPa Calm   2.0 mph /  3.2 km/h 60 % 0.00 in /  0 mm
17:01 62.5 °F /  16.9 °C 47.5 °F /  8.6 °C 29.99 in /  1015.5 hPa SE 5.4 mph /  8.7 km/h 8.1 mph /  13 km/h 58 % 0.00 in /  0 mm
17:06 62.6 °F /  17 °C 47.1 °F /  8.4 °C 29.98 in /  1015.1 hPa SSE 3.7 mph /  6 km/h 6.9 mph /  11.1 km/h 57 % 0.00 in /  0 mm
17:11 62.2 °F /  16.8 °C 46.3 °F /  7.9 °C 29.98 in /  1015.1 hPa SE 0.8 mph /  1.3 km/h 10.4 mph /  16.7 km/h 56 % 0.00 in /  0 mm
17:16 61.7 °F /  16.5 °C 46.8 °F /  8.2 °C 29.98 in /  1015.1 hPa SSE 4.7 mph /  7.6 km/h 8.1 mph /  13 km/h 58 % 0.00 in /  0 mm
17:21 61.4 °F /  16.3 °C 46.9 °F /  8.3 °C 29.98 in /  1015.1 hPa SE 0.1 mph /  0.2 km/h 3.5 mph /  5.6 km/h 59 % 0.00 in /  0 mm
17:26 60.9 °F /  16.1 °C 46.5 °F /  8.1 °C 29.98 in /  1015.1 hPa SSE 3.7 mph /  6 km/h 5.8 mph /  9.3 km/h 59 % 0.00 in /  0 mm
17:31 60.6 °F /  15.9 °C 46.6 °F /  8.1 °C 29.98 in /  1015.1 hPa SE 0.7 mph /  1.1 km/h 3.5 mph /  5.6 km/h 60 % 0.00 in /  0 mm
17:36 60.5 °F /  15.8 °C 47.0 °F /  8.3 °C 29.98 in /  1015.1 hPa South 1.4 mph /  2.3 km/h 3.5 mph /  5.6 km/h 61 % 0.00 in /  0 mm
17:41 60.5 °F /  15.8 °C 47.0 °F /  8.3 °C 29.98 in /  1015.1 hPa SSE 1.6 mph /  2.6 km/h 3.5 mph /  5.6 km/h 61 % 0.00 in /  0 mm
17:46 60.2 °F /  15.7 °C 46.7 °F /  8.2 °C 29.98 in /  1015.1 hPa SE 5.4 mph /  8.7 km/h 8.1 mph /  13 km/h 61 % 0.00 in /  0 mm
17:51 60.1 °F /  15.6 °C 47.5 °F /  8.6 °C 29.98 in /  1015.1 hPa WSW 1.8 mph /  2.9 km/h 3.5 mph /  5.6 km/h 63 % 0.00 in /  0 mm
17:54 60.1 °F /  15.6 °C 47.5 °F /  8.6 °C 29.98 in /  1015.1 hPa WSW 0.9 mph /  1.4 km/h 3.0 mph /  4.8 km/h 63 % 0.00 in /  0 mm
17:59 60.1 °F /  15.6 °C 47.0 °F /  8.3 °C 29.98 in /  1015.1 hPa SE 2.2 mph /  3.5 km/h 4.6 mph /  7.4 km/h 62 % 0.00 in /  0 mm
18:04 60.1 °F /  15.6 °C 47.0 °F /  8.3 °C 29.99 in /  1015.5 hPa SE 1.6 mph /  2.6 km/h 5.8 mph /  9.3 km/h 62 % 0.00 in /  0 mm
18:06 60.0 °F /  15.6 °C 46.9 °F /  8.3 °C 29.99 in /  1015.5 hPa SSE 0.2 mph /  0.3 km/h 3.5 mph /  5.6 km/h 62 % 0.00 in /  0 mm
18:11 59.9 °F /  15.5 °C 47.3 °F /  8.5 °C 29.99 in /  1015.5 hPa SSW 1.8 mph /  2.9 km/h 4.0 mph /  6.4 km/h 63 % 0.00 in /  0 mm
18:16 59.8 °F /  15.4 °C 47.2 °F /  8.4 °C 29.99 in /  1015.5 hPa SSW 0.9 mph /  1.4 km/h 2.3 mph /  3.7 km/h 63 % 0.00 in /  0 mm
18:21 59.5 °F /  15.3 °C 46.9 °F /  8.3 °C 29.99 in /  1015.5 hPa South 1.8 mph /  2.9 km/h 5.8 mph /  9.3 km/h 63 % 0.00 in /  0 mm
18:22 59.5 °F /  15.3 °C 46.9 °F /  8.3 °C 29.98 in /  1015.1 hPa South 0.9 mph /  1.4 km/h 1.2 mph /  1.9 km/h 63 % 0.00 in /  0 mm
18:28 59.2 °F /  15.1 °C 47.0 °F /  8.3 °C 29.99 in /  1015.5 hPa SSE 3.7 mph /  6 km/h 8.1 mph /  13 km/h 64 % 0.00 in /  0 mm
18:33 58.8 °F /  14.9 °C 47.1 °F /  8.4 °C 29.99 in /  1015.5 hPa SE 4.9 mph /  7.9 km/h 8.1 mph /  13 km/h 65 % 0.00 in /  0 mm
18:38 58.5 °F /  14.7 °C 47.2 °F /  8.4 °C 29.99 in /  1015.5 hPa South 2.7 mph /  4.3 km/h 5.8 mph /  9.3 km/h 66 % 0.00 in /  0 mm
18:43 58.1 °F /  14.5 °C 47.2 °F /  8.4 °C 29.99 in /  1015.5 hPa SSE 0.5 mph /  0.8 km/h 3.5 mph /  5.6 km/h 67 % 0.00 in /  0 mm
18:48 57.8 °F /  14.3 °C 46.9 °F /  8.3 °C 29.99 in /  1015.5 hPa SSE 1.2 mph /  1.9 km/h 4.6 mph /  7.4 km/h 67 % 0.00 in /  0 mm
18:53 57.5 °F /  14.2 °C 47.0 °F /  8.3 °C 29.99 in /  1015.5 hPa SSE 3.0 mph /  4.8 km/h 5.8 mph /  9.3 km/h 68 % 0.00 in /  0 mm
18:58 57.1 °F /  13.9 °C 46.6 °F /  8.1 °C 29.99 in /  1015.5 hPa SSE 0.7 mph /  1.1 km/h 3.5 mph /  5.6 km/h 68 % 0.00 in /  0 mm
19:03 56.8 °F /  13.8 °C 46.7 °F /  8.2 °C 29.99 in /  1015.5 hPa SSE 2.2 mph /  3.5 km/h 6.0 mph /  9.7 km/h 69 % 0.00 in /  0 mm
19:08 56.5 °F /  13.6 °C 46.4 °F /  8 °C 29.99 in /  1015.5 hPa SE 0.8 mph /  1.3 km/h 3.5 mph /  5.6 km/h 69 % 0.00 in /  0 mm
19:13 56.3 °F /  13.5 °C 46.6 °F /  8.1 °C 29.99 in /  1015.5 hPa SE 2.8 mph /  4.5 km/h 8.1 mph /  13 km/h 70 % 0.00 in /  0 mm
19:18 56.0 °F /  13.3 °C 46.7 °F /  8.2 °C 30.00 in /  1015.8 hPa SSE 0.5 mph /  0.8 km/h 3.5 mph /  5.6 km/h 71 % 0.00 in /  0 mm
19:23 55.8 °F /  13.2 °C 46.5 °F /  8.1 °C 29.99 in /  1015.5 hPa ESE 3.4 mph /  5.5 km/h 5.8 mph /  9.3 km/h 71 % 0.00 in /  0 mm
19:28 55.5 °F /  13.1 °C 46.6 °F /  8.1 °C 29.99 in /  1015.5 hPa SE 3.1 mph /  5 km/h 6.0 mph /  9.7 km/h 72 % 0.00 in /  0 mm
19:33 55.3 °F /  12.9 °C 46.4 °F /  8 °C 30.00 in /  1015.8 hPa SSE 1.8 mph /  2.9 km/h 4.6 mph /  7.4 km/h 72 % 0.00 in /  0 mm
19:38 55.2 °F /  12.9 °C 46.7 °F /  8.2 °C 30.00 in /  1015.8 hPa SE 2.3 mph /  3.7 km/h 4.6 mph /  7.4 km/h 73 % 0.00 in /  0 mm
19:43 55.1 °F /  12.8 °C 46.6 °F /  8.1 °C 30.00 in /  1015.8 hPa SE 3.5 mph /  5.6 km/h 6.9 mph /  11.1 km/h 73 % 0.00 in /  0 mm
19:48 54.7 °F /  12.6 °C 46.2 °F /  7.9 °C 30.00 in /  1015.8 hPa SSE 4.7 mph /  7.6 km/h 9.2 mph /  14.8 km/h 73 % 0.00 in /  0 mm
19:53 54.4 °F /  12.4 °C 46.3 °F /  7.9 °C 30.00 in /  1015.8 hPa SE 3.3 mph /  5.3 km/h 5.8 mph /  9.3 km/h 74 % 0.00 in /  0 mm
19:58 54.3 °F /  12.4 °C 46.5 °F /  8.1 °C 30.01 in /  1016.1 hPa SSE 2.7 mph /  4.3 km/h 8.0 mph /  12.9 km/h 75 % 0.00 in /  0 mm
20:03 54.1 °F /  12.3 °C 46.3 °F /  7.9 °C 30.00 in /  1015.8 hPa SSE 3.9 mph /  6.3 km/h 5.8 mph /  9.3 km/h 75 % 0.00 in /  0 mm
20:08 53.9 °F /  12.2 °C 46.5 °F /  8.1 °C 30.00 in /  1015.8 hPa SSE 1.9 mph /  3.1 km/h 4.6 mph /  7.4 km/h 76 % 0.00 in /  0 mm
20:13 53.7 °F /  12.1 °C 46.3 °F /  7.9 °C 30.01 in /  1016.1 hPa SE 2.3 mph /  3.7 km/h 9.2 mph /  14.8 km/h 76 % 0.00 in /  0 mm
20:18 53.5 °F /  11.9 °C 46.5 °F /  8.1 °C 30.00 in /  1015.8 hPa SE 2.0 mph /  3.2 km/h 4.0 mph /  6.4 km/h 77 % 0.00 in /  0 mm
20:23 53.5 °F /  11.9 °C 46.5 °F /  8.1 °C 30.01 in /  1016.1 hPa SE 0.2 mph /  0.3 km/h 2.0 mph /  3.2 km/h 77 % 0.00 in /  0 mm
20:28 53.3 °F /  11.8 °C 46.6 °F /  8.1 °C 30.00 in /  1015.8 hPa SE 0.2 mph /  0.3 km/h 3.5 mph /  5.6 km/h 78 % 0.00 in /  0 mm
20:33 53.3 °F /  11.8 °C 46.6 °F /  8.1 °C 30.01 in /  1016.1 hPa SE 0.2 mph /  0.3 km/h 1.0 mph /  1.6 km/h 78 % 0.00 in /  0 mm
20:38 53.2 °F /  11.8 °C 46.5 °F /  8.1 °C 30.00 in /  1015.8 hPa SE 2.4 mph /  3.9 km/h 3.5 mph /  5.6 km/h 78 % 0.00 in /  0 mm
20:43 53.0 °F /  11.7 °C 46.7 °F /  8.2 °C 30.00 in /  1015.8 hPa SE 1.3 mph /  2.1 km/h 4.0 mph /  6.4 km/h 79 % 0.00 in /  0 mm
20:48 52.9 °F /  11.6 °C 46.6 °F /  8.1 °C 30.00 in /  1015.8 hPa SSE 2.6 mph /  4.2 km/h 5.8 mph /  9.3 km/h 79 % 0.00 in /  0 mm
20:53 52.8 °F /  11.6 °C 46.5 °F /  8.1 °C 30.00 in /  1015.8 hPa SE 1.7 mph /  2.7 km/h 3.5 mph /  5.6 km/h 79 % 0.00 in /  0 mm
20:58 52.8 °F /  11.6 °C 46.8 °F /  8.2 °C 30.00 in /  1015.8 hPa Calm     80 % 0.00 in /  0 mm
21:03 52.8 °F /  11.6 °C 47.1 °F /  8.4 °C 30.00 in /  1015.8 hPa Calm   2.3 mph /  3.7 km/h 81 % 0.00 in /  0 mm
21:08 52.7 °F /  11.5 °C 47.0 °F /  8.3 °C 30.00 in /  1015.8 hPa SE 0.2 mph /  0.3 km/h 3.5 mph /  5.6 km/h 81 % 0.00 in /  0 mm
21:13 52.7 °F /  11.5 °C 47.0 °F /  8.3 °C 30.00 in /  1015.8 hPa SE 2.2 mph /  3.5 km/h 3.5 mph /  5.6 km/h 81 % 0.00 in /  0 mm
21:18 52.7 °F /  11.5 °C 47.0 °F /  8.3 °C 30.00 in /  1015.8 hPa SSE 0.5 mph /  0.8 km/h 2.3 mph /  3.7 km/h 81 % 0.00 in /  0 mm
21:23 52.7 °F /  11.5 °C 47.0 °F /  8.3 °C 30.00 in /  1015.8 hPa SE 1.2 mph /  1.9 km/h 3.0 mph /  4.8 km/h 81 % 0.00 in /  0 mm
21:28 52.7 °F /  11.5 °C 47.0 °F /  8.3 °C 30.00 in /  1015.8 hPa SE 1.6 mph /  2.6 km/h 3.5 mph /  5.6 km/h 81 % 0.00 in /  0 mm
21:34 52.7 °F /  11.5 °C 47.0 °F /  8.3 °C 30.00 in /  1015.8 hPa SE 0.4 mph /  0.6 km/h 2.3 mph /  3.7 km/h 81 % 0.00 in /  0 mm
21:39 52.7 °F /  11.5 °C 47.0 °F /  8.3 °C 30.00 in /  1015.8 hPa SE 1.6 mph /  2.6 km/h 3.5 mph /  5.6 km/h 81 % 0.00 in /  0 mm
21:44 52.7 °F /  11.5 °C 47.0 °F /  8.3 °C 30.00 in /  1015.8 hPa SE 1.0 mph /  1.6 km/h 6.0 mph /  9.7 km/h 81 % 0.00 in /  0 mm
21:49 52.7 °F /  11.5 °C 47.4 °F /  8.6 °C 30.00 in /  1015.8 hPa SE 0.3 mph /  0.5 km/h 4.6 mph /  7.4 km/h 82 % 0.00 in /  0 mm
21:54 52.6 °F /  11.4 °C 47.3 °F /  8.5 °C 30.00 in /  1015.8 hPa Calm   1.2 mph /  1.9 km/h 82 % 0.00 in /  0 mm
21:59 52.6 °F /  11.4 °C 47.3 °F /  8.5 °C 30.00 in /  1015.8 hPa SE 0.8 mph /  1.3 km/h   82 % 0.00 in /  0 mm
22:04 52.6 °F /  11.4 °C 47.6 °F /  8.7 °C 29.99 in /  1015.5 hPa Calm   1.2 mph /  1.9 km/h 83 % 0.00 in /  0 mm
22:09 52.5 °F /  11.4 °C 47.2 °F /  8.4 °C 30.00 in /  1015.8 hPa Calm     82 % 0.00 in /  0 mm
22:14 52.4 °F /  11.3 °C 47.1 °F /  8.4 °C 30.00 in /  1015.8 hPa Calm   1.2 mph /  1.9 km/h 82 % 0.00 in /  0 mm
22:19 52.4 °F /  11.3 °C 47.4 °F /  8.6 °C 30.00 in /  1015.8 hPa Calm     83 % 0.00 in /  0 mm
22:24 52.4 °F /  11.3 °C 47.4 °F /  8.6 °C 30.00 in /  1015.8 hPa Calm   1.2 mph /  1.9 km/h 83 % 0.00 in /  0 mm
22:29 52.3 °F /  11.3 °C 47.3 °F /  8.5 °C 30.00 in /  1015.8 hPa SSE 0.2 mph /  0.3 km/h 3.5 mph /  5.6 km/h 83 % 0.00 in /  0 mm
22:34 52.2 °F /  11.2 °C 47.2 °F /  8.4 °C 30.00 in /  1015.8 hPa SE 0.1 mph /  0.2 km/h 1.2 mph /  1.9 km/h 83 % 0.00 in /  0 mm
22:39 52.2 °F /  11.2 °C 47.5 °F /  8.6 °C 30.00 in /  1015.8 hPa Calm     84 % 0.00 in /  0 mm
22:44 52.1 °F /  11.2 °C 47.4 °F /  8.6 °C 30.00 in /  1015.8 hPa Calm     84 % 0.00 in /  0 mm
22:49 52.1 °F /  11.2 °C 47.4 °F /  8.6 °C 30.00 in /  1015.8 hPa SE 0.1 mph /  0.2 km/h 1.0 mph /  1.6 km/h 84 % 0.00 in /  0 mm
22:54 52.0 °F /  11.1 °C 47.3 °F /  8.5 °C 30.00 in /  1015.8 hPa Calm     84 % 0.00 in /  0 mm
22:59 52.0 °F /  11.1 °C 47.3 °F /  8.5 °C 30.00 in /  1015.8 hPa SE 1.0 mph /  1.6 km/h 2.0 mph /  3.2 km/h 84 % 0.00 in /  0 mm
23:04 52.0 °F /  11.1 °C 47.3 °F /  8.5 °C 30.00 in /  1015.8 hPa SE 0.1 mph /  0.2 km/h 3.5 mph /  5.6 km/h 84 % 0.00 in /  0 mm
23:09 52.0 °F /  11.1 °C 47.3 °F /  8.5 °C 30.00 in /  1015.8 hPa SE 0.7 mph /  1.1 km/h 3.5 mph /  5.6 km/h 84 % 0.00 in /  0 mm
23:14 52.0 °F /  11.1 °C 47.3 °F /  8.5 °C 29.99 in /  1015.5 hPa SE 0.1 mph /  0.2 km/h 1.2 mph /  1.9 km/h 84 % 0.00 in /  0 mm
23:19 52.0 °F /  11.1 °C 47.3 °F /  8.5 °C 29.99 in /  1015.5 hPa Calm     84 % 0.00 in /  0 mm
23:24 52.0 °F /  11.1 °C 47.3 °F /  8.5 °C 29.99 in /  1015.5 hPa Calm     84 % 0.00 in /  0 mm
23:29 52.1 °F /  11.2 °C 47.4 °F /  8.6 °C 29.99 in /  1015.5 hPa Calm     84 % 0.00 in /  0 mm
23:34 52.1 °F /  11.2 °C 47.4 °F /  8.6 °C 29.99 in /  1015.5 hPa SE 0.1 mph /  0.2 km/h 3.5 mph /  5.6 km/h 84 % 0.00 in /  0 mm
23:39 52.1 °F /  11.2 °C 47.4 °F /  8.6 °C 29.99 in /  1015.5 hPa Calm   1.0 mph /  1.6 km/h 84 % 0.00 in /  0 mm
23:44 52.1 °F /  11.2 °C 47.4 °F /  8.6 °C 29.99 in /  1015.5 hPa Calm     84 % 0.00 in /  0 mm
23:49 52.1 °F /  11.2 °C 47.4 °F /  8.6 °C 29.99 in /  1015.5 hPa SE 0.4 mph /  0.6 km/h 1.2 mph /  1.9 km/h 84 % 0.00 in /  0 mm
23:54 52.1 °F /  11.2 °C 47.4 °F /  8.6 °C 29.99 in /  1015.5 hPa SE 0.2 mph /  0.3 km/h 1.2 mph /  1.9 km/h 84 % 0.00 in /  0 mm
23:59 52.1 °F /  11.2 °C 47.1 °F /  8.4 °C 29.99 in /  1015.5 hPa Calm   3.5 mph /  5.6 km/h 83 % 0.00 in /  0 mm
Crab Meadow Weather
Compliments of Weather Underground - 3 mb

Script developed by  Jim McMurry - jmcmurry@mwt.net Adapted for the template by  Wim van der Kuil - Leuven-Template.eu

One Inch of Rain: One inch of rain over one square mile equals to 17.4 million gallons of water.